Terminal Aerodrome Forecast
Issued by NWS

Home | Current Version | Previous Version | Text Only | Print | Product List | Glossary On
Versions: 1 2 3 4 5 6 7 8 9 10 11 12 13 14 15 16 17 18 19 20
000
FTUS41 KBOX 150538
TAFACK
TAF
KACK 150538Z 1506/1606 29012KT P6SM SKC
     FM151500 28006KT P6SM BKN120
     FM152100 22006KT P6SM OVC025
     FM160000 06005KT 1SM -SN OVC020
     FM160100 34005KT 1SM -SN OVC008=

USA.gov is the U.S. government's official web portal to all federal, state and local government web resources and services.